createdAt,value
2024-01-07T00:01:47.938Z,1.42
2024-01-07T00:04:17.496Z,1.33
2024-01-07T00:06:44.840Z,1.42
2024-01-07T00:09:12.401Z,1.85
2024-01-07T00:11:39.765Z,1.15
2024-01-07T00:14:07.081Z,1.65
2024-01-07T00:16:34.381Z,1.10
2024-01-07T00:19:01.769Z,1.52
2024-01-07T00:21:30.582Z,1.77
2024-01-07T00:23:57.861Z,1.58
2024-01-07T00:26:25.128Z,4.10
2024-01-07T00:28:52.423Z,2.50
2024-01-07T00:31:19.788Z,2.95
2024-01-07T00:33:47.246Z,2.20
2024-01-07T00:36:14.549Z,2.42
2024-01-07T00:38:43.231Z,2.80
2024-01-07T00:41:10.519Z,1.92
2024-01-07T00:43:37.794Z,3.83
2024-01-07T00:46:05.552Z,3.00
2024-01-07T00:48:33.255Z,3.58
2024-01-07T00:51:01.305Z,2.55
2024-01-07T00:53:28.556Z,3.70
2024-01-07T00:55:58.237Z,2.75
2024-01-07T00:58:25.538Z,3.13
2024-01-07T01:00:52.853Z,2.92
2024-01-07T01:03:20.294Z,4.07
2024-01-07T01:05:47.801Z,6.18
2024-01-07T01:08:15.116Z,4.55
2024-01-07T01:10:43.879Z,4.95
2024-01-07T01:13:12.594Z,7.35
2024-01-07T01:15:39.975Z,5.43
2024-01-07T01:18:07.362Z,4.13
2024-01-07T01:20:34.695Z,4.68
2024-01-07T01:23:02.025Z,7.75
2024-01-07T01:25:29.304Z,9.07
2024-01-07T01:27:57.130Z,7.20
2024-01-07T01:30:25.928Z,10.02
2024-01-07T01:32:53.451Z,9.65
2024-01-07T01:35:20.789Z,11.40
2024-01-07T01:37:48.053Z,7.25
2024-01-07T01:40:17.330Z,10.50
2024-01-07T01:42:45.109Z,8.68
2024-01-07T01:45:12.447Z,9.60
2024-01-07T01:47:41.398Z,7.97
2024-01-07T01:50:09.407Z,11.82
2024-01-07T01:52:36.794Z,12.35
2024-01-07T01:55:05.212Z,14.43
2024-01-07T01:57:35.058Z,17.73
2024-01-07T02:00:03.916Z,18.88
2024-01-07T02:02:32.880Z,15.95
2024-01-07T02:05:01.740Z,21.10
2024-01-07T02:07:31.257Z,19.13
2024-01-07T02:09:58.649Z,17.75
2024-01-07T02:12:26.070Z,15.32
2024-01-07T02:14:53.372Z,14.20
2024-01-07T02:17:21.175Z,25.67
2024-01-07T02:19:48.945Z,20.13
2024-01-07T02:22:17.768Z,24.70
2024-01-07T02:24:46.456Z,26.95
2024-01-07T02:27:13.800Z,23.45
2024-01-07T02:29:41.101Z,23.42
2024-01-07T02:32:09.174Z,24.58
2024-01-07T02:34:36.496Z,27.10
2024-01-07T02:37:04.267Z,27.73
2024-01-07T02:39:31.654Z,28.08
2024-01-07T02:42:00.340Z,23.58
2024-01-07T02:44:27.627Z,22.67
2024-01-07T02:46:54.940Z,22.80
2024-01-07T02:49:22.336Z,23.42
2024-01-07T02:51:49.679Z,25.13
2024-01-07T02:54:17.286Z,23.48
2024-01-07T02:56:44.536Z,23.05
2024-01-07T02:59:13.255Z,19.35
2024-01-07T03:01:40.601Z,26.02
2024-01-07T03:04:08.341Z,24.40
2024-01-07T03:06:35.696Z,24.35
2024-01-07T03:09:03.164Z,24.17
2024-01-07T03:11:30.678Z,24.50
2024-01-07T03:13:58.077Z,22.77
2024-01-07T03:16:27.374Z,22.58
2024-01-07T03:18:54.734Z,12.85
2024-01-07T03:21:23.796Z,22.70
2024-01-07T03:23:52.330Z,22.90
2024-01-07T03:26:20.748Z,24.20
2024-01-07T03:28:48.173Z,22.13
2024-01-07T03:31:17.190Z,27.33
2024-01-07T03:33:46.178Z,24.08
2024-01-07T03:36:14.993Z,19.83
2024-01-07T03:38:42.573Z,10.85
2024-01-07T03:41:09.904Z,19.35
2024-01-07T03:43:37.185Z,26.65
2024-01-07T03:46:04.596Z,13.63
2024-01-07T03:48:32.091Z,25.15
2024-01-07T03:51:00.805Z,25.15
2024-01-07T03:53:28.080Z,20.98
2024-01-07T03:55:55.359Z,19.08
2024-01-07T03:58:22.630Z,16.05
2024-01-07T04:00:50.001Z,21.08
2024-01-07T04:03:17.558Z,18.83
2024-01-07T04:05:45.130Z,19.30
2024-01-07T04:08:13.847Z,16.30
2024-01-07T04:10:41.122Z,20.80
2024-01-07T04:13:08.551Z,19.23
2024-01-07T04:15:35.912Z,18.45
2024-01-07T04:18:03.407Z,17.52
2024-01-07T04:20:30.705Z,12.27
2024-01-07T04:22:58.181Z,8.82
2024-01-07T04:25:26.878Z,12.88
2024-01-07T04:27:54.210Z,13.93
2024-01-07T04:30:21.584Z,13.52
2024-01-07T04:32:48.981Z,8.77
2024-01-07T04:35:16.328Z,13.10
2024-01-07T04:37:43.676Z,17.67
2024-01-07T04:40:12.236Z,12.00
2024-01-07T04:42:40.976Z,14.07
2024-01-07T04:45:08.937Z,15.18
2024-01-07T04:47:36.248Z,15.55
2024-01-07T04:50:04.685Z,17.58
2024-01-07T04:52:31.977Z,17.65
2024-01-07T04:54:59.397Z,16.60
2024-01-07T04:57:26.761Z,15.43
2024-01-07T04:59:55.554Z,19.60
2024-01-07T05:02:22.833Z,14.02
2024-01-07T05:04:50.091Z,17.75
2024-01-07T05:07:17.493Z,18.58
2024-01-07T05:09:44.861Z,15.10
2024-01-07T05:12:12.226Z,18.30
2024-01-07T05:14:39.509Z,16.85
2024-01-07T05:17:08.174Z,15.20
2024-01-07T05:19:35.521Z,12.50
2024-01-07T05:22:02.908Z,12.13
2024-01-07T05:24:31.758Z,12.57
2024-01-07T05:27:00.237Z,16.95
2024-01-07T05:29:27.511Z,15.27
2024-01-07T05:31:54.786Z,16.92
2024-01-07T05:34:23.562Z,13.73
2024-01-07T05:36:50.988Z,16.45
2024-01-07T05:39:18.250Z,14.95
2024-01-07T05:41:45.517Z,13.18
2024-01-07T05:44:13.372Z,15.98
2024-01-07T05:46:40.975Z,11.90
2024-01-07T05:49:09.325Z,14.85
2024-01-07T05:51:41.173Z,33.35
2024-01-07T05:54:08.613Z,15.18
2024-01-07T05:56:39.812Z,17.88
2024-01-07T05:59:07.270Z,18.55
2024-01-07T06:01:34.711Z,9.27
2024-01-07T06:04:02.063Z,15.80
2024-01-07T06:06:29.641Z,13.93
2024-01-07T06:08:58.486Z,15.43
2024-01-07T06:11:25.768Z,15.65
2024-01-07T06:13:53.031Z,13.60
2024-01-07T06:16:20.309Z,12.85
2024-01-07T06:18:47.712Z,15.70
2024-01-07T06:21:15.112Z,13.38
2024-01-07T06:23:42.369Z,12.10
2024-01-07T06:26:11.014Z,14.30
2024-01-07T06:28:38.363Z,14.07
2024-01-07T06:31:05.839Z,13.05
2024-01-07T06:33:33.483Z,15.52
2024-01-07T06:36:01.275Z,13.25
2024-01-07T06:38:28.551Z,14.07
2024-01-07T06:40:58.508Z,12.60
2024-01-07T06:43:29.006Z,11.55
2024-01-07T06:45:56.669Z,12.07
2024-01-07T06:48:24.037Z,13.55
2024-01-07T06:50:51.376Z,13.30
2024-01-07T06:53:18.778Z,14.05
2024-01-07T06:55:46.084Z,11.35
2024-01-07T06:58:13.404Z,11.43
2024-01-07T07:00:42.180Z,12.35
2024-01-07T07:03:09.776Z,13.13
2024-01-07T07:05:37.126Z,15.25
2024-01-07T07:08:05.040Z,11.65
2024-01-07T07:10:32.314Z,9.63
2024-01-07T07:12:59.633Z,11.13
2024-01-07T07:15:26.965Z,7.80
2024-01-07T07:17:56.006Z,9.60
2024-01-07T07:20:23.360Z,14.25
2024-01-07T07:22:50.620Z,11.20
2024-01-07T07:25:17.953Z,10.98
2024-01-07T07:27:45.364Z,10.80
2024-01-07T07:30:12.974Z,8.40
2024-01-07T07:32:40.965Z,7.03
2024-01-07T07:35:09.836Z,6.63
2024-01-07T07:37:37.128Z,7.70
2024-01-07T07:40:05.389Z,6.85
2024-01-07T07:42:32.817Z,8.90
2024-01-07T07:45:00.222Z,8.80
2024-01-07T07:47:27.624Z,10.48
2024-01-07T07:49:55.042Z,6.82
2024-01-07T07:52:23.781Z,7.70
2024-01-07T07:54:51.148Z,10.07
2024-01-07T07:57:18.580Z,9.00
2024-01-07T07:59:45.869Z,10.70
2024-01-07T08:02:13.557Z,9.77
2024-01-07T08:04:40.860Z,10.15
2024-01-07T08:07:08.285Z,11.32
2024-01-07T08:09:37.219Z,10.55
2024-01-07T08:12:05.474Z,9.35
2024-01-07T08:14:33.510Z,10.25
2024-01-07T08:17:00.787Z,10.32
2024-01-07T08:19:28.149Z,8.15
2024-01-07T08:21:55.469Z,10.05
2024-01-07T08:24:22.746Z,9.95
2024-01-07T08:26:51.423Z,10.98
2024-01-07T08:29:18.761Z,9.45
2024-01-07T08:31:46.139Z,8.30
2024-01-07T08:34:13.544Z,10.30
2024-01-07T08:36:40.881Z,10.10
2024-01-07T08:39:08.275Z,9.80
2024-01-07T08:41:35.530Z,10.27
2024-01-07T08:44:04.356Z,10.45
2024-01-07T08:46:31.628Z,11.68
2024-01-07T08:48:59.070Z,12.55
2024-01-07T08:51:26.874Z,12.85
2024-01-07T08:54:31.381Z,10.98
2024-01-07T08:57:01.577Z,12.98
2024-01-07T08:59:30.143Z,7.43
2024-01-07T09:01:57.420Z,13.50
2024-01-07T09:04:24.753Z,11.88
2024-01-07T09:06:52.036Z,6.70
2024-01-07T09:09:19.335Z,9.65
2024-01-07T09:11:46.666Z,15.15
2024-01-07T09:14:13.983Z,11.25
2024-01-07T09:16:42.622Z,12.40
2024-01-07T09:19:11.591Z,10.57
2024-01-07T09:21:40.940Z,11.85
2024-01-07T09:24:08.335Z,13.93
2024-01-07T09:26:35.668Z,12.43
2024-01-07T09:29:02.964Z,13.00
2024-01-07T09:31:30.363Z,7.53
2024-01-07T09:33:59.133Z,11.65
2024-01-07T09:36:30.289Z,12.73
2024-01-07T09:38:58.353Z,14.32
2024-01-07T09:41:26.306Z,10.43
2024-01-07T09:43:54.002Z,9.88
2024-01-07T10:47:14.325Z,11.15
2024-01-07T10:49:45.323Z,12.00
2024-01-07T10:52:12.377Z,13.80
2024-01-07T10:54:40.376Z,9.48
2024-01-07T10:57:10.424Z,11.73
2024-01-07T10:59:37.632Z,12.52
2024-01-07T11:02:04.861Z,15.85
2024-01-07T11:04:38.855Z,10.63
2024-01-07T11:07:13.246Z,9.10
2024-01-07T11:09:44.484Z,11.65
2024-01-07T11:12:11.656Z,13.88
2024-01-07T11:14:38.977Z,9.80
2024-01-07T11:17:06.147Z,10.32
2024-01-07T11:19:35.958Z,10.65
2024-01-07T11:22:17.729Z,12.73
2024-01-07T11:24:44.616Z,9.75
2024-01-07T11:27:11.526Z,8.95
2024-01-07T11:29:38.398Z,11.63
2024-01-07T11:32:06.779Z,12.18
2024-01-07T11:34:41.193Z,14.70
2024-01-07T11:37:10.830Z,8.85
2024-01-07T11:39:37.829Z,15.15
2024-01-07T11:42:04.901Z,11.85
2024-01-07T11:44:34.197Z,11.63
2024-01-07T11:47:01.050Z,11.02
2024-01-07T11:49:28.005Z,10.40
2024-01-07T11:51:56.295Z,12.40
2024-01-07T11:54:23.241Z,10.52
2024-01-07T11:56:50.142Z,13.32
2024-01-07T11:59:17.110Z,12.85
2024-01-07T12:01:44.031Z,12.80
2024-01-07T12:04:11.107Z,15.15
2024-01-07T12:06:38.991Z,11.65
2024-01-07T12:09:07.260Z,14.00
2024-01-07T12:11:34.785Z,13.45
2024-01-07T12:14:01.754Z,10.65
2024-01-07T12:16:28.777Z,14.50
2024-01-07T12:18:55.969Z,11.77
2024-01-07T12:21:23.064Z,12.68
2024-01-07T12:23:50.753Z,11.68
2024-01-07T12:26:19.268Z,10.43
2024-01-07T12:28:46.176Z,11.27
2024-01-07T12:31:13.221Z,10.25
2024-01-07T12:33:40.794Z,9.10
2024-01-07T12:36:07.842Z,8.55
2024-01-07T12:38:37.356Z,7.85
2024-01-07T12:41:04.365Z,12.38
2024-01-07T12:43:32.602Z,8.05
2024-01-07T12:45:59.660Z,10.55
2024-01-07T12:48:26.668Z,10.00
2024-01-07T12:50:53.602Z,8.73
2024-01-07T12:53:20.543Z,8.45
2024-01-07T12:55:47.404Z,8.05
2024-01-07T12:58:14.356Z,8.68
2024-01-07T13:00:42.670Z,6.32
2024-01-07T13:03:09.720Z,8.30
2024-01-07T13:05:36.789Z,7.07
2024-01-07T13:08:04.106Z,6.22
2024-01-07T13:10:30.996Z,7.55
2024-01-07T13:13:04.886Z,3.50
2024-01-07T13:15:35.151Z,6.80
2024-01-07T13:18:03.782Z,6.85
2024-01-07T13:20:30.691Z,4.63
2024-01-07T13:22:57.662Z,5.28
2024-01-07T13:25:24.545Z,6.38
2024-01-07T13:27:51.511Z,5.68
2024-01-07T13:30:18.467Z,5.82
2024-01-07T13:32:45.425Z,5.63
2024-01-07T13:35:13.787Z,4.75
2024-01-07T13:37:40.705Z,6.25
2024-01-07T13:40:08.256Z,6.50
2024-01-07T13:42:35.198Z,6.13
2024-01-07T13:45:02.226Z,4.90
2024-01-07T13:47:29.690Z,3.03
2024-01-07T13:49:56.692Z,5.78
2024-01-07T13:52:25.003Z,3.50
2024-01-07T13:54:51.975Z,3.58
2024-01-07T13:57:18.857Z,5.55
2024-01-07T13:59:45.723Z,2.60
2024-01-07T14:02:12.670Z,4.22
2024-01-07T14:04:39.557Z,4.05
2024-01-07T14:07:06.553Z,5.40
2024-01-07T14:09:34.943Z,3.58
2024-01-07T14:12:01.855Z,3.05
2024-01-07T14:14:28.842Z,3.58
2024-01-07T14:16:55.724Z,4.25
2024-01-07T14:19:22.689Z,2.50
2024-01-07T14:21:50.447Z,3.67
2024-01-07T14:24:17.400Z,5.43
2024-01-07T14:26:45.845Z,4.68
2024-01-07T14:29:17.083Z,3.00
2024-01-07T14:31:45.360Z,3.83
2024-01-07T14:34:12.366Z,5.15
2024-01-07T14:36:40.560Z,7.18
2024-01-07T14:39:07.474Z,3.88
2024-01-07T14:41:34.316Z,2.28
2024-01-07T14:44:05.108Z,1.90
2024-01-07T14:46:34.464Z,2.47
2024-01-07T14:49:01.432Z,2.95
2024-01-07T14:51:28.427Z,4.50
2024-01-07T14:53:55.294Z,3.63
2024-01-07T14:56:22.223Z,4.45
2024-01-07T14:58:49.063Z,2.88
2024-01-07T15:01:17.337Z,2.67
2024-01-07T15:03:44.268Z,2.78
2024-01-07T15:06:11.214Z,3.70
2024-01-07T15:08:38.108Z,3.85
2024-01-07T15:11:05.325Z,3.03
2024-01-07T15:13:32.205Z,4.93
2024-01-07T15:15:59.136Z,3.45
2024-01-07T15:18:27.529Z,3.53
2024-01-07T15:20:54.460Z,3.72
2024-01-07T15:23:21.322Z,5.68
2024-01-07T15:25:48.231Z,4.18
2024-01-07T15:28:15.278Z,3.03
2024-01-07T15:30:42.318Z,4.55
2024-01-07T15:33:09.325Z,3.78
2024-01-07T15:35:37.661Z,4.07
2024-01-07T15:38:04.518Z,2.97
2024-01-07T15:40:31.398Z,3.88
2024-01-07T15:42:59.203Z,2.38
2024-01-07T15:45:26.137Z,4.07
2024-01-07T15:47:53.211Z,1.98
2024-01-07T15:50:20.155Z,4.60
2024-01-07T15:52:48.549Z,3.53
2024-01-07T15:55:15.559Z,3.17
2024-01-07T15:57:42.650Z,2.38
2024-01-07T16:00:10.111Z,2.97
2024-01-07T16:02:36.980Z,2.92
2024-01-07T16:05:04.255Z,2.97
2024-01-07T16:07:31.158Z,5.97
2024-01-07T16:09:59.440Z,6.43
2024-01-07T16:12:26.291Z,3.35
2024-01-07T16:14:53.265Z,1.77
2024-01-07T16:17:20.155Z,2.42
2024-01-07T16:19:47.040Z,2.30
2024-01-07T16:22:14.107Z,1.70
2024-01-07T16:24:41.447Z,3.47
2024-01-07T16:27:10.025Z,2.60
2024-01-07T16:29:44.430Z,3.40
2024-01-07T16:32:12.894Z,2.25
2024-01-07T16:34:39.909Z,2.85
2024-01-07T16:37:06.813Z,3.00
2024-01-07T16:39:33.763Z,6.18
2024-01-07T16:42:00.691Z,3.70
2024-01-07T16:44:28.930Z,2.92
2024-01-07T16:46:55.794Z,4.10
2024-01-07T16:51:52.626Z,2.63
2024-01-07T16:54:19.548Z,2.92
2024-01-07T16:56:46.513Z,2.88
2024-01-07T16:59:13.483Z,5.45
2024-01-07T17:01:41.798Z,11.20
2024-01-07T17:04:08.688Z,5.10
2024-01-07T17:06:35.558Z,4.60
2024-01-07T17:09:02.453Z,2.97
2024-01-07T17:11:29.346Z,2.78
2024-01-07T17:13:56.347Z,3.80
2024-01-07T17:16:23.203Z,1.90
2024-01-07T17:18:51.538Z,4.28
2024-01-07T17:21:18.406Z,3.97
2024-01-07T17:23:45.250Z,3.53
2024-01-07T17:26:12.314Z,1.77
2024-01-07T17:28:39.181Z,3.90
2024-01-07T17:31:06.211Z,3.45
2024-01-07T17:33:33.222Z,3.35
2024-01-07T17:36:01.500Z,7.18
2024-01-07T17:38:28.407Z,6.07
2024-01-07T17:40:55.344Z,7.75
2024-01-07T17:43:22.417Z,4.45
2024-01-07T17:45:49.287Z,3.20
2024-01-07T17:48:16.271Z,1.92
2024-01-07T17:50:45.119Z,3.08
2024-01-07T17:53:14.783Z,3.08
2024-01-07T17:55:41.903Z,2.90
2024-01-07T17:58:08.758Z,4.88
2024-01-07T18:00:35.677Z,4.43
2024-01-07T18:03:03.075Z,3.67
2024-01-07T18:05:30.254Z,2.33
2024-01-07T18:07:57.322Z,3.20
2024-01-07T18:10:25.609Z,1.65
2024-01-07T18:12:52.629Z,2.78
2024-01-07T18:15:19.518Z,3.55
2024-01-07T18:17:46.434Z,5.38
2024-01-07T18:20:13.751Z,4.47
2024-01-07T18:22:40.916Z,4.20
2024-01-07T18:25:08.296Z,4.93
2024-01-07T18:27:36.726Z,3.35
2024-01-07T18:30:03.928Z,4.53
2024-01-07T18:32:30.928Z,3.83
2024-01-07T18:34:57.879Z,5.03
2024-01-07T18:37:24.778Z,4.60
2024-01-07T18:39:51.736Z,2.78
2024-01-07T18:42:18.629Z,6.13
2024-01-07T18:44:46.854Z,2.53
2024-01-07T18:47:13.906Z,2.30
2024-01-07T18:49:41.352Z,3.72
2024-01-07T18:52:08.331Z,3.58
2024-01-07T18:54:39.012Z,2.50
2024-01-07T18:57:06.058Z,4.10
2024-01-07T18:59:33.014Z,5.15
2024-01-07T19:02:01.338Z,4.45
2024-01-07T19:04:28.390Z,3.72
2024-01-07T19:06:55.304Z,2.38
2024-01-07T19:09:22.251Z,3.03
2024-01-07T19:11:49.157Z,3.63
2024-01-07T19:14:16.070Z,1.85
2024-01-07T19:16:43.338Z,3.85
2024-01-07T19:19:11.753Z,2.42
2024-01-07T19:21:41.043Z,2.90
2024-01-07T19:24:08.933Z,5.25
2024-01-07T19:26:36.000Z,2.83
2024-01-07T19:29:02.946Z,6.32
2024-01-07T19:31:29.817Z,4.25
2024-01-07T19:33:56.824Z,4.55
2024-01-07T19:36:25.166Z,5.85
2024-01-07T19:38:52.042Z,6.05
2024-01-07T19:41:22.007Z,2.53
2024-01-07T19:43:49.000Z,4.35
2024-01-07T19:46:22.604Z,4.68
2024-01-07T19:48:49.495Z,2.75
2024-01-07T19:51:16.409Z,3.25
2024-01-07T19:53:44.673Z,2.40
2024-01-07T19:56:11.579Z,4.63
2024-01-07T19:58:38.458Z,2.80
2024-01-07T20:01:05.395Z,2.20
2024-01-07T20:03:32.434Z,2.42
2024-01-07T20:06:00.093Z,3.90
2024-01-07T20:08:27.286Z,2.28
2024-01-07T20:10:55.586Z,3.40
2024-01-07T20:13:22.483Z,2.30
2024-01-07T20:15:49.356Z,2.60
2024-01-07T20:18:16.364Z,2.10
2024-01-07T20:20:43.286Z,2.65
2024-01-07T20:23:10.262Z,3.13
2024-01-07T20:25:38.195Z,3.35
2024-01-07T20:28:06.605Z,8.52
2024-01-07T20:30:33.549Z,7.07
2024-01-07T20:33:00.637Z,13.73
2024-01-07T20:35:27.574Z,15.73
2024-01-07T20:37:54.646Z,5.15
2024-01-07T20:40:21.645Z,3.28
2024-01-07T20:42:48.555Z,3.22
2024-01-07T20:45:16.868Z,3.38
2024-01-07T20:47:43.941Z,4.10
2024-01-07T20:50:11.314Z,4.15
2024-01-07T20:52:38.303Z,4.43
2024-01-07T20:55:05.339Z,3.25
2024-01-07T20:57:32.239Z,3.55
2024-01-07T20:59:59.120Z,3.35
2024-01-07T21:02:27.481Z,2.35
2024-01-07T21:04:54.449Z,2.45
2024-01-07T21:07:21.368Z,3.63
2024-01-07T21:09:48.231Z,1.60
2024-01-07T21:12:15.070Z,2.55
2024-01-07T21:14:41.930Z,1.75
2024-01-07T21:17:08.937Z,1.70
2024-01-07T21:19:37.189Z,3.15
2024-01-07T21:22:04.230Z,3.25
2024-01-07T21:24:31.101Z,2.50
2024-01-07T21:26:58.085Z,6.88
2024-01-07T21:29:25.348Z,5.25
2024-01-07T21:31:52.302Z,7.22
2024-01-07T21:34:19.376Z,6.18
2024-01-07T21:36:47.727Z,3.38
2024-01-07T21:39:14.580Z,2.05
2024-01-07T21:41:41.912Z,3.25
2024-01-07T21:44:08.950Z,1.73
2024-01-07T21:46:35.879Z,10.85
2024-01-07T21:49:02.820Z,4.90
2024-01-07T21:51:29.660Z,15.70
2024-01-07T21:53:57.937Z,3.35
2024-01-07T21:56:24.790Z,10.02
2024-01-07T21:58:51.721Z,6.43
2024-01-07T22:01:18.636Z,6.75
2024-01-07T22:03:45.634Z,3.88
2024-01-07T22:06:12.669Z,2.20
2024-01-07T22:08:39.807Z,2.08
2024-01-07T22:11:12.772Z,1.40
2024-01-07T22:13:39.643Z,1.60
2024-01-07T22:16:09.317Z,1.90
2024-01-07T22:18:36.252Z,1.90
2024-01-07T22:21:03.308Z,2.25
2024-01-07T22:23:30.240Z,1.92
2024-01-07T22:25:57.239Z,1.67
2024-01-07T22:28:25.540Z,2.05
2024-01-07T22:30:52.513Z,1.58
2024-01-07T22:33:19.627Z,2.08
2024-01-07T22:35:46.619Z,1.85
2024-01-07T22:38:13.596Z,1.58
2024-01-07T22:40:40.555Z,2.25
2024-01-07T22:43:07.415Z,1.45
2024-01-07T22:45:35.694Z,2.25
2024-01-07T22:48:02.773Z,1.85
2024-01-07T22:50:29.828Z,3.00
2024-01-07T22:52:56.715Z,2.40
2024-01-07T22:55:23.725Z,1.85
2024-01-07T22:57:50.653Z,2.13
2024-01-07T23:00:17.685Z,2.88
2024-01-07T23:02:46.223Z,2.50
2024-01-07T23:05:13.490Z,2.10
2024-01-07T23:07:40.792Z,2.03
2024-01-07T23:10:08.050Z,5.55
2024-01-07T23:12:34.972Z,1.77
2024-01-07T23:15:01.881Z,1.02
2024-01-07T23:17:28.955Z,2.72
2024-01-07T23:19:57.247Z,1.73
2024-01-07T23:22:24.427Z,2.78
2024-01-07T23:24:51.342Z,2.45
2024-01-07T23:27:18.321Z,1.30
2024-01-07T23:29:45.248Z,2.10
2024-01-07T23:32:12.231Z,2.70
2024-01-07T23:34:39.445Z,2.08
2024-01-07T23:37:07.707Z,2.35
2024-01-07T23:39:34.835Z,1.77
2024-01-07T23:42:01.726Z,5.00
2024-01-07T23:44:28.657Z,1.40
2024-01-07T23:46:55.576Z,2.15
2024-01-07T23:49:22.578Z,5.28
2024-01-07T23:51:49.488Z,4.20
2024-01-07T23:54:17.829Z,4.82
2024-01-07T23:56:44.742Z,2.00
2024-01-07T23:59:11.807Z,5.80
